createdAt,value
2022-10-02T00:02:02.306Z,13.25
2022-10-02T00:04:35.287Z,13.27
2022-10-02T00:07:08.556Z,13.28
2022-10-02T00:09:43.471Z,13.30
2022-10-02T00:12:15.411Z,13.31
2022-10-02T00:14:47.853Z,13.34
2022-10-02T00:17:21.555Z,13.36
2022-10-02T00:19:54.328Z,13.38
2022-10-02T00:22:31.440Z,13.41
2022-10-02T00:25:07.104Z,13.42
2022-10-02T00:27:45.670Z,13.45
2022-10-02T00:30:18.142Z,13.45
2022-10-02T00:33:02.361Z,13.45
2022-10-02T00:35:41.179Z,13.46
2022-10-02T00:38:22.717Z,13.48
2022-10-02T00:41:15.152Z,13.49
2022-10-02T00:43:57.812Z,13.50
2022-10-02T00:46:38.852Z,13.49
2022-10-02T00:49:30.097Z,13.50
2022-10-02T00:52:08.584Z,13.52
2022-10-02T00:54:57.615Z,13.55
2022-10-02T00:57:39.938Z,13.56
2022-10-02T01:00:12.661Z,13.56
2022-10-02T01:03:12.747Z,13.55
2022-10-02T01:05:41.168Z,13.56
2022-10-02T01:08:09.618Z,13.54
2022-10-02T01:10:39.138Z,13.55
2022-10-02T01:13:08.361Z,13.55
2022-10-02T01:15:39.257Z,13.55
2022-10-02T01:18:12.006Z,13.56
2022-10-02T01:20:43.422Z,13.52
2022-10-02T01:23:24.499Z,13.52
2022-10-02T01:25:54.380Z,13.55
2022-10-02T01:28:23.400Z,13.56
2022-10-02T01:30:55.946Z,13.56
2022-10-02T01:33:25.782Z,13.58
2022-10-02T01:35:54.229Z,13.58
2022-10-02T01:38:24.676Z,13.60
2022-10-02T01:40:54.603Z,13.63
2022-10-02T01:43:28.157Z,13.62
2022-10-02T01:46:08.692Z,13.63
2022-10-02T01:48:46.100Z,13.62
2022-10-02T01:51:25.730Z,13.63
2022-10-02T01:54:05.964Z,13.66
2022-10-02T01:56:44.911Z,13.68
2022-10-02T01:59:24.913Z,13.73
2022-10-02T02:02:03.453Z,13.73
2022-10-02T02:04:42.698Z,13.75
2022-10-02T02:07:17.664Z,13.75
2022-10-02T02:09:57.412Z,13.76
2022-10-02T02:12:38.199Z,13.77
2022-10-02T02:15:12.657Z,13.76
2022-10-02T02:17:49.450Z,13.75
2022-10-02T02:20:22.754Z,13.75
2022-10-02T02:22:54.317Z,13.75
2022-10-02T02:25:27.205Z,13.74
2022-10-02T02:28:00.979Z,13.72
2022-10-02T02:30:32.693Z,13.73
2022-10-02T02:33:05.786Z,13.74
2022-10-02T02:35:38.900Z,13.74
2022-10-02T02:38:10.762Z,13.75
2022-10-02T02:40:43.067Z,13.77
2022-10-02T02:43:17.990Z,13.78
2022-10-02T02:45:51.180Z,13.79
2022-10-02T02:48:23.839Z,13.79
2022-10-02T02:50:56.210Z,13.82
2022-10-02T02:53:29.146Z,13.84
2022-10-02T02:56:00.809Z,13.86
2022-10-02T02:58:37.225Z,13.87
2022-10-02T03:01:05.675Z,13.89
2022-10-02T03:03:34.035Z,13.90
2022-10-02T03:06:08.389Z,13.93
2022-10-02T03:08:38.262Z,13.96
2022-10-02T03:11:18.643Z,13.99
2022-10-02T03:14:02.289Z,14.02
2022-10-02T03:16:44.629Z,13.99
2022-10-02T03:19:29.207Z,14.00
2022-10-02T03:22:05.831Z,14.00
2022-10-02T03:24:41.592Z,13.99
2022-10-02T03:27:14.320Z,13.99
2022-10-02T03:29:50.417Z,13.98
2022-10-02T03:32:21.239Z,13.97
2022-10-02T03:34:49.638Z,13.97
2022-10-02T03:37:18.734Z,14.00
2022-10-02T03:39:47.361Z,14.03
2022-10-02T03:42:26.079Z,14.03
2022-10-02T03:44:55.774Z,14.01
2022-10-02T03:47:24.175Z,13.99
2022-10-02T03:49:52.534Z,13.99
2022-10-02T03:52:24.315Z,13.98
2022-10-02T03:54:56.812Z,13.97
2022-10-02T03:57:26.691Z,13.94
2022-10-02T04:00:03.260Z,13.93
2022-10-02T04:02:38.931Z,13.95
2022-10-02T04:05:18.895Z,13.94
2022-10-02T04:07:52.945Z,13.89
2022-10-02T04:10:31.335Z,13.82
2022-10-02T04:13:08.858Z,13.76
2022-10-02T04:15:53.345Z,13.68
2022-10-02T04:18:25.986Z,13.66
2022-10-02T04:20:59.588Z,13.61
2022-10-02T04:23:34.412Z,13.56
2022-10-02T04:26:08.688Z,13.51
2022-10-02T04:28:41.282Z,13.48
2022-10-02T04:31:13.268Z,13.46
2022-10-02T04:33:42.043Z,13.43
2022-10-02T04:36:22.715Z,13.38
2022-10-02T04:39:07.052Z,13.34
2022-10-02T04:41:53.264Z,13.34
2022-10-02T04:44:33.984Z,13.31
2022-10-02T04:47:25.589Z,13.31
2022-10-02T04:50:10.586Z,13.31
2022-10-02T04:53:00.547Z,13.29
2022-10-02T04:56:04.570Z,13.29
2022-10-02T04:58:53.567Z,13.28
2022-10-02T05:01:31.353Z,13.27
2022-10-02T05:04:31.964Z,13.24
2022-10-02T05:07:13.785Z,13.20
2022-10-02T05:09:53.683Z,13.18
2022-10-02T05:12:44.715Z,13.15
2022-10-02T05:15:25.526Z,13.13
2022-10-02T05:18:18.117Z,13.09
2022-10-02T05:21:13.584Z,13.10
2022-10-02T05:23:55.735Z,13.10
2022-10-02T05:26:42.999Z,13.11
2022-10-02T05:29:32.478Z,13.16
2022-10-02T05:32:17.146Z,13.22
2022-10-02T05:35:02.392Z,13.28
2022-10-02T05:37:50.832Z,13.33
2022-10-02T05:40:25.128Z,13.36
2022-10-02T05:43:02.912Z,13.39
2022-10-02T05:45:36.495Z,13.44
2022-10-02T05:48:13.475Z,13.48
2022-10-02T05:50:42.679Z,13.51
2022-10-02T05:53:26.138Z,13.52
2022-10-02T05:56:01.131Z,13.53
2022-10-02T05:58:34.934Z,13.52
2022-10-02T06:01:11.156Z,13.55
2022-10-02T06:03:43.854Z,13.55
2022-10-02T06:06:18.731Z,13.56
2022-10-02T06:08:54.397Z,13.56
2022-10-02T06:11:27.988Z,13.57
2022-10-02T06:14:00.625Z,13.55
2022-10-02T06:16:34.382Z,13.57
2022-10-02T06:19:12.642Z,13.56
2022-10-02T06:21:49.270Z,13.56
2022-10-02T06:24:25.431Z,13.56
2022-10-02T06:27:00.684Z,13.55
2022-10-02T06:29:34.559Z,13.54
2022-10-02T06:32:15.404Z,13.52
2022-10-02T06:34:47.999Z,13.53
2022-10-02T06:37:33.539Z,13.53
2022-10-02T06:40:20.086Z,13.53
2022-10-02T06:42:58.549Z,13.53
2022-10-02T06:45:39.094Z,13.52
2022-10-02T06:48:26.674Z,13.55
2022-10-02T06:51:01.976Z,13.53
2022-10-02T06:53:50.611Z,13.56
2022-10-02T06:56:43.479Z,13.57
2022-10-02T06:59:26.382Z,13.55
2022-10-02T07:02:00.981Z,13.55
2022-10-02T07:04:47.993Z,13.55
2022-10-02T07:07:35.224Z,13.51
2022-10-02T07:10:15.222Z,13.48
2022-10-02T07:13:02.929Z,13.46
2022-10-02T07:15:53.371Z,13.42
2022-10-02T07:18:32.692Z,13.36
2022-10-02T07:21:11.348Z,13.32
2022-10-02T07:23:48.612Z,13.29
2022-10-02T07:26:47.790Z,13.26
2022-10-02T07:29:30.383Z,13.24
2022-10-02T07:32:19.041Z,13.23
2022-10-02T07:34:59.139Z,13.24
2022-10-02T07:37:36.665Z,13.22
2022-10-02T07:40:25.675Z,13.23
2022-10-02T07:43:11.432Z,13.22
2022-10-02T07:45:42.699Z,13.22
2022-10-02T07:48:33.945Z,13.22
2022-10-02T07:51:31.454Z,13.20
2022-10-02T07:54:09.432Z,13.18
2022-10-02T07:56:38.786Z,13.20
2022-10-02T07:59:13.019Z,13.20
2022-10-02T08:01:44.432Z,13.21
2022-10-02T08:04:18.802Z,13.23
2022-10-02T08:06:48.864Z,13.23
2022-10-02T08:09:23.986Z,13.24
2022-10-02T08:11:57.913Z,13.22
2022-10-02T08:14:32.457Z,13.22
2022-10-02T08:17:10.857Z,13.22
2022-10-02T08:19:43.359Z,13.22
2022-10-02T08:22:22.874Z,13.20
2022-10-02T08:24:56.434Z,13.19
2022-10-02T08:27:30.347Z,13.17
2022-10-02T08:30:03.862Z,13.16
2022-10-02T08:32:37.383Z,13.18
2022-10-02T08:35:12.017Z,13.18
2022-10-02T08:37:48.011Z,13.19
2022-10-02T08:40:39.079Z,13.18
2022-10-02T08:43:48.595Z,13.16
2022-10-02T08:46:50.406Z,13.15
2022-10-02T08:50:02.510Z,13.13
2022-10-02T08:52:56.552Z,13.11
2022-10-02T08:55:55.587Z,13.08
2022-10-02T08:58:59.260Z,13.07
2022-10-02T09:02:00.095Z,13.06
2022-10-02T09:05:05.387Z,13.06
2022-10-02T09:08:12.203Z,13.06
2022-10-02T09:11:17.514Z,13.10
2022-10-02T09:14:24.717Z,13.12
2022-10-02T09:17:15.438Z,13.08
2022-10-02T09:19:58.034Z,13.07
2022-10-02T09:22:58.933Z,13.06
2022-10-02T09:25:37.083Z,13.04
2022-10-02T09:28:52.923Z,13.03
2022-10-02T09:31:44.671Z,13.02
2022-10-02T09:34:48.502Z,12.99
2022-10-02T09:37:54.533Z,12.96
2022-10-02T09:40:53.185Z,12.95
2022-10-02T09:44:03.621Z,12.97
2022-10-02T09:46:59.037Z,12.98
2022-10-02T09:50:00.682Z,12.99
2022-10-02T09:52:51.237Z,13.02
2022-10-02T09:55:57.758Z,13.06
2022-10-02T09:58:56.421Z,13.13
2022-10-02T10:01:43.369Z,13.17
2022-10-02T10:05:01.311Z,13.23
2022-10-02T10:08:02.725Z,13.28
2022-10-02T10:11:03.523Z,13.32
2022-10-02T10:14:07.667Z,13.35
2022-10-02T10:17:20.470Z,13.35
2022-10-02T10:20:33.595Z,13.41
2022-10-02T10:23:14.517Z,13.47
2022-10-02T10:25:59.203Z,13.55
2022-10-02T10:29:09.584Z,13.61
2022-10-02T10:32:24.380Z,13.70
2022-10-02T10:35:18.821Z,13.86
2022-10-02T10:38:14.261Z,13.96
2022-10-02T10:41:15.336Z,14.03
2022-10-02T10:44:19.196Z,14.10
2022-10-02T10:47:18.254Z,14.16
2022-10-02T10:50:21.791Z,14.22
2022-10-02T10:53:37.251Z,14.27
2022-10-02T10:56:39.687Z,14.35
2022-10-02T10:59:29.679Z,14.45
2022-10-02T11:02:20.796Z,14.54
2022-10-02T11:05:09.789Z,14.68
2022-10-02T11:08:02.558Z,14.84
2022-10-02T11:10:47.134Z,15.08
2022-10-02T11:13:33.849Z,15.34
2022-10-02T11:16:34.635Z,15.65
2022-10-02T11:19:43.616Z,15.93
2022-10-02T11:22:26.555Z,16.20
2022-10-02T11:25:21.252Z,16.47
2022-10-02T11:28:12.377Z,16.73
2022-10-02T11:30:52.129Z,16.94
2022-10-02T11:33:49.662Z,17.02
2022-10-02T11:36:42.788Z,16.96
2022-10-02T11:39:17.427Z,16.89
2022-10-02T11:42:05.933Z,16.81
2022-10-02T11:44:58.520Z,16.81
2022-10-02T11:47:46.649Z,16.79
2022-10-02T11:50:39.723Z,16.81
2022-10-02T11:53:32.123Z,16.77
2022-10-02T11:56:15.404Z,16.72
2022-10-02T11:58:56.450Z,16.67
2022-10-02T12:01:35.972Z,16.62
2022-10-02T12:04:30.411Z,16.58
2022-10-02T12:07:21.274Z,16.60
2022-10-02T12:10:04.555Z,16.63
2022-10-02T12:12:51.627Z,16.63
2022-10-02T12:15:31.520Z,16.63
2022-10-02T12:18:25.279Z,16.60
2022-10-02T12:21:27.737Z,16.59
2022-10-02T12:24:20.821Z,16.58
2022-10-02T12:26:59.620Z,16.57
2022-10-02T12:29:47.233Z,16.57
2022-10-02T12:32:28.043Z,16.51
2022-10-02T12:35:17.770Z,16.45
2022-10-02T12:37:57.593Z,16.40
2022-10-02T12:40:34.537Z,16.39
2022-10-02T12:43:40.498Z,16.37
2022-10-02T12:46:26.450Z,16.36
2022-10-02T12:49:15.062Z,16.35
2022-10-02T12:52:00.822Z,16.31
2022-10-02T12:55:04.602Z,16.29
2022-10-02T12:58:04.795Z,16.27
2022-10-02T13:00:51.265Z,16.27
2022-10-02T13:04:00.961Z,16.30
2022-10-02T13:07:00.498Z,16.32
2022-10-02T13:09:41.347Z,16.34
2022-10-02T13:12:20.466Z,16.34
2022-10-02T13:15:11.801Z,16.32
2022-10-02T13:17:47.852Z,16.30
2022-10-02T13:20:28.218Z,16.23
2022-10-02T13:23:08.985Z,16.16
2022-10-02T13:26:04.163Z,16.13
2022-10-02T13:28:57.166Z,16.14
2022-10-02T13:31:39.941Z,16.23
2022-10-02T13:34:26.101Z,16.28
2022-10-02T13:37:13.203Z,16.32
2022-10-02T13:40:03.616Z,16.33
2022-10-02T13:42:42.940Z,16.31
2022-10-02T13:45:19.218Z,16.29
2022-10-02T13:47:59.654Z,16.25
2022-10-02T13:50:42.547Z,16.23
2022-10-02T13:53:36.702Z,16.22
2022-10-02T13:56:18.263Z,16.24
2022-10-02T13:59:11.306Z,16.29
2022-10-02T14:01:52.243Z,16.32
2022-10-02T14:04:53.021Z,16.35
2022-10-02T14:07:38.574Z,16.35
2022-10-02T14:10:15.342Z,16.41
2022-10-02T14:12:57.913Z,16.60
2022-10-02T14:15:36.982Z,16.88
2022-10-02T14:18:30.402Z,17.25
2022-10-02T14:21:08.160Z,17.46
2022-10-02T14:23:52.793Z,17.41
2022-10-02T14:26:33.644Z,17.25
2022-10-02T14:29:20.206Z,17.11
2022-10-02T14:32:11.065Z,17.02
2022-10-02T14:35:00.939Z,16.92
2022-10-02T14:37:50.227Z,16.84
2022-10-02T14:40:20.058Z,16.80
2022-10-02T14:43:21.857Z,16.74
2022-10-02T14:46:08.063Z,16.65
2022-10-02T14:49:06.655Z,16.44
2022-10-02T14:52:05.367Z,16.24
2022-10-02T14:54:50.077Z,16.10
2022-10-02T14:57:34.767Z,15.94
2022-10-02T15:00:15.746Z,15.78
2022-10-02T15:03:11.080Z,15.68
2022-10-02T15:05:49.189Z,15.55
2022-10-02T15:08:23.248Z,15.49
2022-10-02T15:10:52.758Z,15.40
2022-10-02T15:13:34.792Z,15.34
2022-10-02T15:16:32.479Z,15.27
2022-10-02T15:19:10.812Z,15.18
2022-10-02T15:21:46.931Z,15.10
2022-10-02T15:24:30.041Z,14.99
2022-10-02T15:27:08.676Z,14.93
2022-10-02T15:29:47.120Z,14.89
2022-10-02T15:32:54.680Z,14.82
2022-10-02T15:35:32.220Z,14.74
2022-10-02T15:38:26.729Z,14.70
2022-10-02T15:41:19.251Z,14.64
2022-10-02T15:43:56.326Z,14.57
2022-10-02T15:46:33.208Z,14.55
2022-10-02T15:49:07.946Z,14.53
2022-10-02T15:52:02.484Z,14.48
2022-10-02T15:54:46.792Z,14.44
2022-10-02T15:57:43.819Z,14.41
2022-10-02T16:00:18.123Z,14.37
2022-10-02T16:02:58.344Z,14.32
2022-10-02T16:05:44.377Z,14.18
2022-10-02T16:08:48.700Z,14.15
2022-10-02T16:11:50.056Z,14.15
2022-10-02T16:14:26.112Z,14.16
2022-10-02T16:17:29.936Z,14.17
2022-10-02T16:20:16.453Z,14.15
2022-10-02T16:23:03.652Z,14.12
2022-10-02T16:25:49.272Z,14.12
2022-10-02T16:28:32.786Z,14.12
2022-10-02T16:31:27.882Z,14.13
2022-10-02T16:34:02.470Z,14.13
2022-10-02T16:36:42.751Z,14.13
2022-10-02T16:39:37.077Z,14.12
2022-10-02T16:42:21.072Z,14.13
2022-10-02T16:45:13.851Z,14.12
2022-10-02T16:47:50.285Z,14.10
2022-10-02T16:50:25.012Z,14.08
2022-10-02T16:52:59.387Z,14.07
2022-10-02T16:55:33.687Z,14.04
2022-10-02T16:58:21.389Z,14.02
2022-10-02T17:00:59.264Z,14.01
2022-10-02T17:03:35.769Z,14.01
2022-10-02T17:06:10.964Z,13.96
2022-10-02T17:08:45.269Z,13.90
2022-10-02T17:11:21.596Z,13.87
2022-10-02T17:14:03.494Z,13.90
2022-10-02T17:16:41.457Z,13.94
2022-10-02T17:19:25.638Z,13.94
2022-10-02T17:22:00.383Z,13.93
2022-10-02T17:24:42.678Z,13.94
2022-10-02T17:27:17.162Z,13.94
2022-10-02T17:29:58.790Z,13.90
2022-10-02T17:32:48.337Z,13.85
2022-10-02T17:35:18.695Z,13.75
2022-10-02T17:38:20.663Z,13.72
2022-10-02T17:40:55.928Z,13.74
2022-10-02T17:43:31.590Z,13.77
2022-10-02T17:46:20.473Z,13.77
2022-10-02T17:48:58.953Z,13.73
2022-10-02T17:51:52.504Z,13.69
2022-10-02T17:55:02.697Z,13.63
2022-10-02T17:57:43.063Z,13.62
2022-10-02T18:00:18.657Z,13.58
2022-10-02T18:03:03.431Z,13.59
2022-10-02T18:05:49.922Z,13.59
2022-10-02T18:08:40.402Z,13.58
2022-10-02T18:11:13.903Z,13.57
2022-10-02T18:14:04.537Z,13.52
2022-10-02T18:16:45.668Z,13.46
2022-10-02T18:19:27.815Z,13.43
2022-10-02T18:22:11.925Z,13.41
2022-10-02T18:24:53.602Z,13.42
2022-10-02T18:27:38.500Z,13.45
2022-10-02T18:30:15.375Z,13.45
2022-10-02T18:33:26.051Z,13.45
2022-10-02T18:36:10.814Z,13.50
2022-10-02T18:38:54.608Z,13.57
2022-10-02T18:41:43.926Z,13.57
2022-10-02T18:44:33.569Z,13.56
2022-10-02T18:47:11.674Z,13.57
2022-10-02T18:49:51.810Z,13.52
2022-10-02T18:52:59.969Z,13.48
2022-10-02T18:56:03.623Z,13.45
2022-10-02T18:58:44.520Z,13.43
2022-10-02T19:01:36.322Z,13.40
2022-10-02T19:04:27.444Z,13.43
2022-10-02T19:07:03.690Z,13.50
2022-10-02T19:09:32.636Z,13.56
2022-10-02T19:12:06.473Z,13.57
2022-10-02T19:14:41.246Z,13.58
2022-10-02T19:17:15.263Z,13.59
2022-10-02T19:19:44.715Z,13.56
2022-10-02T19:22:19.808Z,13.54
2022-10-02T19:24:52.117Z,13.56
2022-10-02T19:27:26.184Z,13.58
2022-10-02T19:29:58.763Z,13.55
2022-10-02T19:32:31.193Z,13.47
2022-10-02T19:35:03.772Z,13.35
2022-10-02T19:37:33.274Z,13.29
2022-10-02T19:40:04.545Z,13.35
2022-10-02T19:42:47.394Z,13.39
2022-10-02T19:45:26.828Z,13.37
2022-10-02T19:47:59.761Z,13.37
2022-10-02T19:50:39.861Z,13.34
2022-10-02T19:53:24.081Z,13.34
2022-10-02T19:55:56.602Z,13.41
2022-10-02T19:58:32.662Z,13.43
2022-10-02T20:01:03.148Z,13.46
2022-10-02T20:03:33.354Z,13.49
2022-10-02T20:06:10.646Z,13.47
2022-10-02T20:08:43.702Z,13.43
2022-10-02T20:11:18.593Z,13.42
2022-10-02T20:13:53.857Z,13.41
2022-10-02T20:16:43.312Z,13.40
2022-10-02T20:19:17.944Z,13.40
2022-10-02T20:21:49.555Z,13.38
2022-10-02T20:24:23.891Z,13.37
2022-10-02T20:26:56.154Z,13.32
2022-10-02T20:29:32.061Z,13.26
2022-10-02T20:32:07.718Z,13.26
2022-10-02T20:34:46.199Z,13.25
2022-10-02T20:37:18.671Z,13.23
2022-10-02T20:39:55.212Z,13.22
2022-10-02T20:42:30.675Z,13.18
2022-10-02T20:44:59.089Z,13.17
2022-10-02T20:48:20.876Z,13.15
2022-10-02T20:50:59.014Z,13.16
2022-10-02T20:53:59.853Z,13.13
2022-10-02T20:56:53.533Z,13.11
2022-10-02T21:00:00.844Z,13.05
2022-10-02T21:02:46.120Z,13.04
2022-10-02T21:05:54.742Z,13.03
2022-10-02T21:08:41.738Z,12.98
2022-10-02T21:11:20.046Z,12.95
2022-10-02T21:14:21.737Z,12.86
2022-10-02T21:17:30.540Z,12.78
2022-10-02T21:20:50.854Z,12.68
2022-10-02T21:24:03.006Z,12.66
2022-10-02T21:27:16.106Z,12.68
2022-10-02T21:29:56.597Z,12.70
2022-10-02T21:32:57.523Z,12.72
2022-10-02T21:35:39.408Z,12.72
2022-10-02T21:38:32.201Z,12.72
2022-10-02T21:41:51.632Z,12.73
2022-10-02T21:45:03.515Z,12.76
2022-10-02T21:48:13.760Z,12.76
2022-10-02T21:51:15.422Z,12.80
2022-10-02T21:54:38.214Z,12.78
2022-10-02T21:57:32.068Z,12.77
2022-10-02T22:00:15.329Z,12.76
2022-10-02T22:03:21.798Z,12.82
2022-10-02T22:06:10.577Z,12.83
2022-10-02T22:08:55.053Z,12.83
2022-10-02T22:11:33.393Z,12.86
2022-10-02T22:14:08.575Z,12.92
2022-10-02T22:16:48.450Z,12.94
2022-10-02T22:19:37.503Z,12.95
2022-10-02T22:22:18.450Z,12.91
2022-10-02T22:25:08.393Z,12.84
2022-10-02T22:28:00.905Z,12.80
2022-10-02T22:30:31.178Z,12.81
2022-10-02T22:33:19.730Z,12.79
2022-10-02T22:36:18.731Z,12.85
2022-10-02T22:38:50.687Z,12.93
2022-10-02T22:41:27.553Z,12.97
2022-10-02T22:43:59.966Z,12.95
2022-10-02T22:46:40.985Z,12.92
2022-10-02T22:49:20.632Z,12.93
2022-10-02T22:52:00.362Z,12.94
2022-10-02T22:54:36.777Z,12.99
2022-10-02T22:57:15.667Z,13.04
2022-10-02T22:59:50.677Z,13.08
2022-10-02T23:02:25.572Z,13.10
2022-10-02T23:05:00.194Z,13.04
2022-10-02T23:07:37.867Z,12.97
2022-10-02T23:10:18.215Z,12.89
2022-10-02T23:12:58.577Z,12.81
2022-10-02T23:15:36.120Z,12.75
2022-10-02T23:18:13.300Z,12.69
2022-10-02T23:20:47.776Z,12.66
2022-10-02T23:23:23.372Z,12.59
2022-10-02T23:25:57.422Z,12.55
2022-10-02T23:28:30.314Z,12.53
2022-10-02T23:31:08.536Z,12.53
2022-10-02T23:33:48.169Z,12.55
2022-10-02T23:36:25.330Z,12.55
2022-10-02T23:39:04.771Z,12.50
2022-10-02T23:41:40.742Z,12.43
2022-10-02T23:44:28.831Z,12.40
2022-10-02T23:47:14.744Z,12.39
2022-10-02T23:49:47.611Z,12.38
2022-10-02T23:52:43.373Z,12.37
2022-10-02T23:55:39.587Z,12.42
2022-10-02T23:58:29.348Z,12.48
